createdAt,value
2022-08-19T00:02:18.690Z,26.66
2022-08-19T00:05:21.739Z,26.60
2022-08-19T00:08:23.993Z,26.53
2022-08-19T00:11:28.631Z,26.58
2022-08-19T00:14:33.726Z,26.57
2022-08-19T00:17:36.093Z,26.41
2022-08-19T00:20:44.259Z,26.25
2022-08-19T00:23:47.047Z,26.03
2022-08-19T00:26:49.780Z,25.92
2022-08-19T00:29:52.468Z,25.84
2022-08-19T00:32:56.120Z,25.80
2022-08-19T00:35:58.354Z,25.63
2022-08-19T00:39:01.428Z,25.36
2022-08-19T00:42:03.879Z,25.12
2022-08-19T00:45:13.370Z,24.79
2022-08-19T00:48:17.556Z,24.61
2022-08-19T00:51:19.787Z,24.45
2022-08-19T00:54:26.237Z,24.18
2022-08-19T00:57:37.057Z,23.93
2022-08-19T01:00:39.535Z,23.94
2022-08-19T01:03:58.156Z,23.86
2022-08-19T01:07:01.123Z,23.91
2022-08-19T01:10:05.274Z,23.91
2022-08-19T01:13:07.690Z,24.03
2022-08-19T01:16:11.408Z,23.94
2022-08-19T01:19:27.563Z,23.86
2022-08-19T01:22:33.426Z,23.91
2022-08-19T01:25:46.677Z,23.84
2022-08-19T01:28:51.044Z,23.89
2022-08-19T01:31:54.570Z,24.08
2022-08-19T01:34:56.811Z,24.03
2022-08-19T01:38:03.287Z,24.02
2022-08-19T01:41:10.863Z,23.94
2022-08-19T01:44:18.871Z,23.73
2022-08-19T01:47:21.545Z,23.81
2022-08-19T01:50:23.929Z,23.70
2022-08-19T01:53:30.559Z,23.73
2022-08-19T01:56:36.402Z,23.58
2022-08-19T01:59:40.392Z,23.52
2022-08-19T02:02:44.258Z,23.49
2022-08-19T02:05:47.105Z,23.43
2022-08-19T02:08:50.175Z,23.46
2022-08-19T02:11:54.460Z,23.53
2022-08-19T02:14:56.707Z,23.58
2022-08-19T02:17:59.339Z,23.71
2022-08-19T02:21:02.138Z,23.56
2022-08-19T02:24:05.240Z,23.53
2022-08-19T02:27:07.949Z,23.74
2022-08-19T02:30:17.113Z,23.56
2022-08-19T02:33:19.363Z,23.40
2022-08-19T02:36:21.582Z,23.32
2022-08-19T02:39:24.233Z,23.33
2022-08-19T02:42:26.492Z,23.20
2022-08-19T02:45:34.123Z,23.14
2022-08-19T02:48:36.315Z,23.02
2022-08-19T02:51:41.597Z,23.11
2022-08-19T02:54:44.749Z,23.13
2022-08-19T02:57:47.762Z,23.05
2022-08-19T03:00:52.900Z,23.03
2022-08-19T03:03:56.524Z,23.00
2022-08-19T03:07:07.132Z,23.06
2022-08-19T03:10:13.644Z,23.06
2022-08-19T03:13:18.756Z,23.15
2022-08-19T03:16:26.228Z,23.18
2022-08-19T03:19:28.691Z,23.22
2022-08-19T03:22:31.084Z,23.24
2022-08-19T03:25:38.979Z,23.05
2022-08-19T03:28:51.380Z,23.06
2022-08-19T03:32:01.938Z,22.95
2022-08-19T03:35:07.417Z,22.95
2022-08-19T03:38:09.629Z,23.02
2022-08-19T03:41:14.969Z,22.80
2022-08-19T03:44:22.726Z,22.91
2022-08-19T03:47:24.933Z,22.69
2022-08-19T03:50:27.147Z,22.93
2022-08-19T03:53:30.945Z,22.88
2022-08-19T03:56:36.249Z,22.85
2022-08-19T03:59:39.858Z,22.73
2022-08-19T04:02:43.018Z,22.74
2022-08-19T04:06:29.995Z,22.71
2022-08-19T04:09:32.307Z,22.69
2022-08-19T04:12:34.420Z,22.68
2022-08-19T04:15:42.399Z,22.77
2022-08-19T04:18:44.928Z,22.76
2022-08-19T04:21:50.183Z,22.75
2022-08-19T04:24:52.388Z,22.77
2022-08-19T04:27:54.616Z,22.80
2022-08-19T04:30:56.926Z,22.87
2022-08-19T04:34:01.343Z,23.00
2022-08-19T04:37:11.385Z,23.09
2022-08-19T04:40:32.338Z,23.08
2022-08-19T04:43:36.127Z,23.29
2022-08-19T04:46:39.970Z,23.55
2022-08-19T04:49:53.075Z,23.53
2022-08-19T04:52:57.208Z,23.56
2022-08-19T04:56:02.095Z,23.83
2022-08-19T04:59:05.182Z,24.10
2022-08-19T05:02:09.613Z,24.08
2022-08-19T05:05:11.991Z,24.23
2022-08-19T05:08:15.337Z,24.36
2022-08-19T05:11:26.693Z,24.44
2022-08-19T05:14:30.236Z,24.61
2022-08-19T05:17:37.786Z,24.75
2022-08-19T05:20:59.624Z,24.84
2022-08-19T05:24:03.124Z,24.95
2022-08-19T05:27:06.686Z,25.13
2022-08-19T05:30:10.490Z,25.43
2022-08-19T05:33:13.289Z,25.68
2022-08-19T05:36:15.526Z,25.95
2022-08-19T05:39:21.604Z,26.02
2022-08-19T05:42:24.776Z,26.14
2022-08-19T05:45:27.045Z,26.24
2022-08-19T05:48:29.382Z,26.31
2022-08-19T05:51:32.428Z,26.21
2022-08-19T05:54:36.594Z,26.21
2022-08-19T05:57:39.636Z,26.36
2022-08-19T06:00:44.239Z,26.52
2022-08-19T06:03:46.779Z,26.54
2022-08-19T06:06:52.661Z,26.80
2022-08-19T06:10:00.125Z,27.01
2022-08-19T06:13:03.936Z,27.35
2022-08-19T06:16:06.227Z,27.27
2022-08-19T06:19:10.854Z,27.47
2022-08-19T06:22:14.118Z,27.72
2022-08-19T06:25:16.690Z,27.87
2022-08-19T06:28:19.272Z,27.75
2022-08-19T06:31:24.848Z,27.65
2022-08-19T06:34:29.105Z,27.51
2022-08-19T06:37:31.356Z,27.83
2022-08-19T06:40:33.678Z,27.85
2022-08-19T06:43:38.135Z,27.97
2022-08-19T06:46:45.172Z,28.30
2022-08-19T06:50:04.151Z,28.28
2022-08-19T06:53:08.386Z,28.47
2022-08-19T06:56:10.672Z,28.63
2022-08-19T06:59:19.664Z,28.23
2022-08-19T07:02:22.102Z,28.59
2022-08-19T07:05:24.473Z,28.67
2022-08-19T07:08:29.286Z,28.81
2022-08-19T07:11:33.084Z,28.71
2022-08-19T07:14:38.497Z,28.96
2022-08-19T07:17:41.806Z,29.22
2022-08-19T07:20:44.564Z,29.21
2022-08-19T07:23:47.349Z,29.67
2022-08-19T07:26:51.531Z,29.51
2022-08-19T07:29:57.425Z,29.68
2022-08-19T07:32:59.980Z,30.16
2022-08-19T07:36:07.868Z,30.43
2022-08-19T07:39:18.398Z,30.38
2022-08-19T07:42:22.077Z,30.71
2022-08-19T07:45:24.576Z,30.95
2022-08-19T07:48:28.343Z,31.20
2022-08-19T07:51:36.912Z,30.94
2022-08-19T07:54:40.106Z,30.87
2022-08-19T07:57:42.374Z,31.24
2022-08-19T08:00:45.622Z,31.28
2022-08-19T08:04:14.630Z,31.14
2022-08-19T08:07:35.314Z,31.07
2022-08-19T08:10:38.758Z,31.53
2022-08-19T08:13:42.265Z,31.57
2022-08-19T08:16:47.039Z,31.59
2022-08-19T08:19:51.848Z,31.83
2022-08-19T08:23:13.116Z,31.69
2022-08-19T08:26:16.132Z,32.05
2022-08-19T08:29:20.615Z,32.38
2022-08-19T08:32:23.979Z,32.22
2022-08-19T08:35:27.494Z,32.16
2022-08-19T08:38:30.459Z,32.16
2022-08-19T08:41:59.436Z,32.49
2022-08-19T08:45:14.023Z,32.55
2022-08-19T08:48:26.182Z,32.93
2022-08-19T08:51:56.220Z,33.18
2022-08-19T08:55:10.444Z,33.02
2022-08-19T08:58:48.749Z,33.04
2022-08-19T09:01:56.777Z,33.17
2022-08-19T09:04:59.185Z,33.35
2022-08-19T09:08:14.781Z,33.33
2022-08-19T09:11:42.175Z,32.97
2022-08-19T09:14:55.252Z,32.69
2022-08-19T09:18:02.662Z,33.17
2022-08-19T09:21:04.983Z,32.81
2022-08-19T09:24:07.963Z,33.03
2022-08-19T09:27:18.489Z,32.91
2022-08-19T09:30:29.923Z,33.06
2022-08-19T09:33:34.128Z,33.14
2022-08-19T09:36:39.878Z,33.62
2022-08-19T09:39:43.234Z,33.55
2022-08-19T09:42:49.974Z,33.58
2022-08-19T09:45:53.504Z,33.41
2022-08-19T09:48:57.869Z,33.92
2022-08-19T09:52:05.343Z,34.00
2022-08-19T09:55:09.735Z,34.17
2022-08-19T09:58:14.928Z,34.04
2022-08-19T10:01:28.872Z,33.75
2022-08-19T10:04:49.900Z,34.25
2022-08-19T10:07:52.740Z,34.54
2022-08-19T10:10:56.071Z,34.53
2022-08-19T10:13:58.424Z,34.52
2022-08-19T10:17:01.757Z,34.66
2022-08-19T10:20:19.862Z,34.43
2022-08-19T10:23:22.576Z,34.39
2022-08-19T10:26:30.422Z,34.39
2022-08-19T10:29:35.388Z,34.43
2022-08-19T10:32:38.272Z,34.12
2022-08-19T10:35:56.844Z,34.48
2022-08-19T10:39:02.560Z,34.79
2022-08-19T10:42:08.720Z,34.59
2022-08-19T10:45:11.450Z,34.91
2022-08-19T10:48:15.650Z,35.08
2022-08-19T10:51:47.836Z,35.16
2022-08-19T10:55:09.389Z,35.32
2022-08-19T10:58:18.709Z,35.42
2022-08-19T11:01:21.750Z,35.23
2022-08-19T11:04:26.617Z,35.26
2022-08-19T11:07:31.994Z,35.27
2022-08-19T11:10:34.204Z,35.23
2022-08-19T11:13:39.903Z,35.05
2022-08-19T11:16:43.318Z,35.54
2022-08-19T11:19:45.628Z,35.73
2022-08-19T11:22:47.840Z,35.79
2022-08-19T11:25:51.051Z,36.01
2022-08-19T11:28:55.231Z,36.42
2022-08-19T11:31:57.583Z,36.03
2022-08-19T11:34:59.801Z,36.31
2022-08-19T11:38:06.257Z,36.38
2022-08-19T11:41:11.009Z,36.44
2022-08-19T11:44:15.140Z,36.38
2022-08-19T11:47:17.944Z,36.15
2022-08-19T11:50:20.380Z,36.29
2022-08-19T11:53:22.628Z,36.28
2022-08-19T11:56:26.736Z,36.45
2022-08-19T11:59:28.961Z,36.59
2022-08-19T12:02:32.139Z,36.74
2022-08-19T12:05:34.910Z,36.77
2022-08-19T12:08:37.335Z,36.88
2022-08-19T12:11:39.946Z,37.09
2022-08-19T12:14:42.265Z,36.95
2022-08-19T12:17:44.558Z,36.87
2022-08-19T12:20:48.595Z,36.49
2022-08-19T12:23:55.671Z,36.29
2022-08-19T12:27:00.904Z,36.55
2022-08-19T12:30:07.133Z,36.57
2022-08-19T12:33:09.605Z,36.73
2022-08-19T12:36:13.934Z,36.69
2022-08-19T12:39:16.117Z,36.58
2022-08-19T12:42:18.941Z,36.33
2022-08-19T12:45:21.437Z,36.37
2022-08-19T12:48:33.585Z,36.43
2022-08-19T12:51:36.935Z,36.74
2022-08-19T12:54:39.197Z,37.02
2022-08-19T12:57:41.743Z,36.91
2022-08-19T13:00:44.087Z,37.05
2022-08-19T13:03:47.606Z,37.00
2022-08-19T13:06:50.580Z,37.02
2022-08-19T13:09:53.585Z,37.27
2022-08-19T13:12:56.314Z,37.23
2022-08-19T13:16:03.368Z,37.21
2022-08-19T13:19:06.296Z,37.19
2022-08-19T13:22:13.249Z,37.00
2022-08-19T13:25:19.993Z,36.32
2022-08-19T13:28:22.245Z,36.53
2022-08-19T13:31:52.959Z,36.57
2022-08-19T13:34:55.145Z,37.04
2022-08-19T13:37:57.377Z,37.17
2022-08-19T13:41:09.982Z,37.18
2022-08-19T13:44:16.119Z,37.13
2022-08-19T13:47:19.898Z,37.09
2022-08-19T13:50:32.546Z,37.19
2022-08-19T13:53:34.828Z,36.74
2022-08-19T13:56:42.500Z,36.73
2022-08-19T13:59:44.701Z,36.72
2022-08-19T14:02:47.942Z,36.51
2022-08-19T14:05:50.224Z,36.28
2022-08-19T14:08:53.676Z,36.20
2022-08-19T14:11:56.396Z,36.09
2022-08-19T14:14:59.254Z,35.99
2022-08-19T14:18:02.005Z,35.77
2022-08-19T14:21:05.730Z,35.43
2022-08-19T14:24:09.449Z,35.43
2022-08-19T14:27:11.792Z,35.61
2022-08-19T14:30:17.739Z,35.65
2022-08-19T14:33:20.262Z,35.09
2022-08-19T14:36:22.791Z,35.11
2022-08-19T14:39:25.001Z,34.86
2022-08-19T14:42:27.207Z,33.88
2022-08-19T14:45:29.717Z,33.28
2022-08-19T14:48:31.961Z,32.47
2022-08-19T14:51:34.583Z,32.19
2022-08-19T14:54:36.804Z,31.59
2022-08-19T14:57:39.006Z,31.63
2022-08-19T15:00:41.263Z,31.78
2022-08-19T15:03:43.472Z,31.88
2022-08-19T15:06:45.913Z,31.73
2022-08-19T15:09:51.735Z,31.62
2022-08-19T15:12:55.683Z,31.86
2022-08-19T15:15:58.241Z,31.79
2022-08-19T15:19:01.080Z,31.33
2022-08-19T15:22:03.383Z,31.37
2022-08-19T15:25:11.678Z,31.28
2022-08-19T15:28:16.418Z,31.22
2022-08-19T15:31:25.289Z,30.70
2022-08-19T15:34:32.435Z,30.47
2022-08-19T15:37:37.613Z,30.51
2022-08-19T15:40:41.808Z,30.48
2022-08-19T15:43:44.067Z,30.43
2022-08-19T15:46:47.725Z,30.24
2022-08-19T15:49:50.000Z,30.13
2022-08-19T15:52:59.175Z,29.90
2022-08-19T15:56:01.400Z,29.99
2022-08-19T15:59:32.777Z,29.84
2022-08-19T16:03:01.555Z,29.71
2022-08-19T16:06:22.672Z,29.45
2022-08-19T16:09:29.072Z,29.33
2022-08-19T16:12:31.623Z,29.31
2022-08-19T16:15:34.609Z,29.23
2022-08-19T16:18:38.396Z,29.16
2022-08-19T16:21:41.755Z,29.19
2022-08-19T16:24:44.311Z,29.19
2022-08-19T16:28:06.032Z,29.10
2022-08-19T16:31:09.265Z,29.02
2022-08-19T16:34:13.304Z,28.96
2022-08-19T16:37:16.879Z,28.97
2022-08-19T16:40:20.374Z,29.02
2022-08-19T16:43:24.804Z,29.09
2022-08-19T16:46:27.682Z,28.97
2022-08-19T16:49:52.406Z,28.88
2022-08-19T16:52:52.796Z,28.72
2022-08-19T16:55:57.326Z,28.76
2022-08-19T16:58:59.962Z,28.74
2022-08-19T17:02:02.220Z,28.74
2022-08-19T17:05:04.943Z,28.90
2022-08-19T17:08:07.179Z,28.96
2022-08-19T17:11:18.215Z,29.06
2022-08-19T17:14:21.948Z,29.01
2022-08-19T17:17:28.767Z,28.94
2022-08-19T17:20:32.061Z,29.02
2022-08-19T17:23:43.208Z,28.98
2022-08-19T17:26:46.084Z,28.99
2022-08-19T17:29:48.328Z,28.80
2022-08-19T17:32:51.727Z,28.61
2022-08-19T17:35:54.040Z,28.62
2022-08-19T17:38:58.065Z,28.42
2022-08-19T17:42:02.788Z,28.14
2022-08-19T17:45:06.231Z,28.07
2022-08-19T17:48:09.241Z,27.98
2022-08-19T17:51:21.992Z,27.92
2022-08-19T17:54:24.473Z,27.83
2022-08-19T17:57:35.599Z,27.65
2022-08-19T18:00:37.935Z,27.57
2022-08-19T18:03:55.663Z,27.49
2022-08-19T18:06:57.973Z,27.46
2022-08-19T18:10:01.938Z,27.53
2022-08-19T18:13:17.188Z,27.67
2022-08-19T18:16:22.172Z,27.58
2022-08-19T18:19:25.450Z,27.68
2022-08-19T18:22:40.216Z,27.46
2022-08-19T18:25:43.787Z,27.32
2022-08-19T18:28:49.980Z,27.31
2022-08-19T18:31:56.639Z,27.25
2022-08-19T18:35:00.673Z,27.28
2022-08-19T18:38:25.932Z,27.47
2022-08-19T18:41:46.928Z,27.68
2022-08-19T18:45:07.573Z,27.75
2022-08-19T18:48:28.402Z,27.77
2022-08-19T18:51:31.228Z,27.74
2022-08-19T18:54:33.458Z,27.41
2022-08-19T18:57:35.660Z,27.15
2022-08-19T19:00:37.971Z,26.77
2022-08-19T19:03:45.760Z,26.48
2022-08-19T19:06:48.797Z,26.30
2022-08-19T19:09:51.347Z,26.22
2022-08-19T19:12:53.634Z,26.24
2022-08-19T19:15:56.936Z,26.26
2022-08-19T19:18:59.366Z,26.19
2022-08-19T19:22:04.019Z,26.21
2022-08-19T19:25:08.274Z,26.07
2022-08-19T19:28:10.586Z,26.11
2022-08-19T19:31:26.841Z,26.05
2022-08-19T19:34:30.228Z,26.07
2022-08-19T19:37:33.144Z,26.07
2022-08-19T19:40:35.380Z,26.01
2022-08-19T19:43:40.825Z,25.92
2022-08-19T19:46:43.684Z,25.83
2022-08-19T19:50:12.528Z,25.80
2022-08-19T19:53:09.841Z,25.58
2022-08-19T19:56:13.070Z,25.53
2022-08-19T19:59:15.324Z,25.53
2022-08-19T20:02:18.002Z,25.29
2022-08-19T20:05:21.511Z,25.07
2022-08-19T20:08:42.680Z,25.01
2022-08-19T20:11:54.202Z,25.03
2022-08-19T20:14:56.450Z,24.86
2022-08-19T20:17:59.752Z,24.43
2022-08-19T20:21:02.034Z,23.68
2022-08-19T20:24:09.616Z,22.76
2022-08-19T20:27:12.654Z,23.05
2022-08-19T20:30:19.512Z,23.22
2022-08-19T20:33:22.001Z,23.05
2022-08-19T20:36:24.753Z,23.16
2022-08-19T20:39:27.015Z,23.26
2022-08-19T20:42:29.539Z,23.26
2022-08-19T20:45:34.066Z,22.69
2022-08-19T20:48:39.218Z,21.75
2022-08-19T20:51:41.457Z,21.45
2022-08-19T20:54:43.719Z,21.28
2022-08-19T20:57:46.706Z,21.07
2022-08-19T21:00:50.100Z,21.07
2022-08-19T21:03:55.413Z,20.97
2022-08-19T21:06:57.731Z,21.03
2022-08-19T21:09:59.963Z,20.87
2022-08-19T21:13:03.852Z,20.83
2022-08-19T21:16:07.075Z,20.81
2022-08-19T21:19:12.266Z,20.73
2022-08-19T21:22:14.545Z,20.81
2022-08-19T21:25:18.107Z,20.76
2022-08-19T21:28:35.087Z,20.75
2022-08-19T21:31:38.855Z,20.82
2022-08-19T21:34:41.631Z,20.96
2022-08-19T21:37:48.624Z,20.97
2022-08-19T21:40:51.671Z,21.08
2022-08-19T21:43:54.082Z,21.12
2022-08-19T21:46:56.911Z,21.18
2022-08-19T21:49:59.154Z,21.22
2022-08-19T21:53:01.681Z,21.26
2022-08-19T21:56:04.757Z,21.32
2022-08-19T21:59:07.571Z,21.26
2022-08-19T22:02:19.623Z,21.22
2022-08-19T22:05:24.532Z,21.29
2022-08-19T22:08:27.331Z,21.27
2022-08-19T22:11:29.557Z,21.27
2022-08-19T22:14:33.762Z,21.30
2022-08-19T22:17:36.459Z,21.37
2022-08-19T22:20:38.706Z,21.18
2022-08-19T22:23:42.412Z,20.90
2022-08-19T22:26:44.650Z,20.83
2022-08-19T22:29:47.170Z,20.96
2022-08-19T22:33:00.933Z,21.04
2022-08-19T22:36:05.555Z,20.65
2022-08-19T22:39:08.988Z,20.40
2022-08-19T22:42:11.561Z,20.38
2022-08-19T22:45:16.645Z,20.25
2022-08-19T22:48:21.154Z,20.21
2022-08-19T22:51:41.638Z,20.26
2022-08-19T22:54:56.838Z,20.22
2022-08-19T22:57:59.150Z,20.00
2022-08-19T23:01:02.186Z,20.25
2022-08-19T23:04:05.568Z,20.09
2022-08-19T23:07:08.356Z,20.11
2022-08-19T23:10:11.147Z,20.10
2022-08-19T23:13:16.607Z,20.08
2022-08-19T23:16:18.823Z,20.09
2022-08-19T23:19:21.199Z,20.27
2022-08-19T23:22:25.027Z,20.38
2022-08-19T23:25:29.283Z,20.37
2022-08-19T23:28:50.140Z,20.51
2022-08-19T23:31:52.633Z,20.58
2022-08-19T23:34:56.281Z,20.64
2022-08-19T23:37:59.252Z,20.86
2022-08-19T23:41:04.251Z,20.97
2022-08-19T23:44:06.724Z,20.81
2022-08-19T23:47:17.419Z,20.78
2022-08-19T23:50:20.684Z,20.78
2022-08-19T23:53:23.091Z,20.62
2022-08-19T23:56:25.322Z,20.53
2022-08-19T23:59:27.612Z,20.54
